Time;durP1;ratioP1;P1;durP2;ratioP2;P2;SDS_P1;SDS_P2;PMS_P1;PMS_P2;Temp;Humidity;BMP_temperature;BMP_pressure;BME280_temperature;BME280_humidity;BME280_pressure;Samples;Min_cycle;Max_cycle;Signal;HPM_P1;HPM_P2
2023/03/24 00:00:00;;;;;;;30.58;26.85;;;19.30;54.90;;;;;;5006335;28;20219;-68
2023/03/24 00:02:27;;;;;;;28.40;25.48;;;19.30;54.90;;;;;;4976923;28;20193;-68
2023/03/24 00:04:57;;;;;;;29.10;25.67;;;19.30;54.90;;;;;;4976791;28;20196;-68
2023/03/24 00:07:24;;;;;;;28.98;25.92;;;19.30;54.90;;;;;;5002453;28;20199;-68
2023/03/24 00:09:50;;;;;;;28.60;25.52;;;19.30;54.90;;;;;;5012615;28;20231;-68
2023/03/24 00:12:19;;;;;;;28.67;25.20;;;19.30;54.90;;;;;;5004293;28;20185;-68
2023/03/24 00:14:45;;;;;;;27.83;24.90;;;19.30;54.90;;;;;;5012400;28;20207;-68
2023/03/24 00:17:12;;;;;;;27.95;25.00;;;19.30;54.90;;;;;;4996806;28;20192;-68
2023/03/24 00:19:39;;;;;;;27.60;24.60;;;19.30;54.90;;;;;;5013376;28;20207;-68
2023/03/24 00:22:07;;;;;;;27.77;24.80;;;19.30;54.90;;;;;;4989507;28;20215;-68
2023/03/24 00:24:34;;;;;;;26.80;24.05;;;19.30;54.90;;;;;;5003088;28;20207;-68
2023/03/24 00:27:02;;;;;;;26.67;23.77;;;19.30;54.90;;;;;;5006191;28;20281;-68
2023/03/24 00:29:28;;;;;;;26.27;23.48;;;19.30;54.90;;;;;;4992393;28;20245;-68
2023/03/24 00:31:55;;;;;;;26.42;23.52;;;19.30;54.90;;;;;;4992619;28;20177;-68
2023/03/24 00:34:21;;;;;;;26.30;23.50;;;19.30;54.90;;;;;;4976573;28;20185;-68
2023/03/24 00:36:49;;;;;;;27.00;24.08;;;19.30;54.90;;;;;;5012330;28;20183;-68
2023/03/24 00:39:18;;;;;;;26.23;23.38;;;19.30;54.90;;;;;;5011941;28;20190;-68
2023/03/24 00:41:46;;;;;;;25.40;22.70;;;19.30;55.00;;;;;;5028914;28;20180;-68
2023/03/24 00:44:18;;;;;;;25.35;22.75;;;19.30;54.90;;;;;;5011989;28;20188;-68
2023/03/24 00:46:54;;;;;;;26.60;23.85;;;19.30;55.00;;;;;;5012219;28;20196;-68
2023/03/24 00:49:46;;;;;;;27.08;24.15;;;19.30;54.90;;;;;;5011550;28;20255;-68
2023/03/24 00:52:19;;;;;;;25.77;23.10;;;19.30;54.90;;;;;;4996590;28;20283;-68
2023/03/24 00:54:47;;;;;;;24.70;22.05;;;19.30;55.20;;;;;;4972826;28;20236;-68
2023/03/24 00:57:21;;;;;;;25.27;22.60;;;19.30;55.60;;;;;;4980370;28;20181;-68
2023/03/24 00:59:49;;;;;;;23.67;21.27;;;19.30;55.00;;;;;;4991939;28;20208;-68
2023/03/24 01:02:23;;;;;;;24.25;21.75;;;19.30;54.90;;;;;;4992073;28;20225;-68
2023/03/24 01:04:58;;;;;;;23.50;21.00;;;19.30;54.90;;;;;;5008351;28;20188;-68
2023/03/24 01:07:28;;;;;;;22.63;20.35;;;19.30;54.90;;;;;;4991973;28;20177;-68
2023/03/24 01:09:56;;;;;;;24.55;21.95;;;19.30;54.90;;;;;;4991882;28;20220;-68
2023/03/24 01:12:27;;;;;;;23.45;20.83;;;19.30;54.90;;;;;;4991966;28;20255;-68
2023/03/24 01:14:54;;;;;;;23.17;20.63;;;19.30;54.90;;;;;;4992201;28;20694;-68
2023/03/24 01:17:21;;;;;;;22.60;20.30;;;19.30;55.00;;;;;;4991830;28;20235;-68
2023/03/24 01:19:48;;;;;;;23.10;20.73;;;19.30;54.90;;;;;;4991963;28;20213;-68
2023/03/24 01:22:15;;;;;;;23.20;20.80;;;19.30;54.90;;;;;;4992055;28;20254;-68
2023/03/24 01:24:42;;;;;;;22.60;20.23;;;19.30;54.90;;;;;;4992076;28;20193;-68
2023/03/24 01:27:09;;;;;;;23.52;20.98;;;19.30;54.90;;;;;;4975671;28;20207;-68
2023/03/24 01:29:36;;;;;;;23.20;20.73;;;19.30;54.90;;;;;;5008074;28;20220;-68
2023/03/24 01:32:02;;;;;;;21.85;19.55;;;19.30;55.00;;;;;;5008340;28;20196;-68
2023/03/24 01:34:27;;;;;;;24.00;21.52;;;19.30;54.90;;;;;;4991338;28;20206;-68
2023/03/24 01:36:53;;;;;;;22.27;19.90;;;19.30;54.90;;;;;;4991726;28;20193;-68
2023/03/24 01:39:19;;;;;;;22.27;19.88;;;19.30;54.90;;;;;;4991609;28;20188;-68
2023/03/24 01:41:45;;;;;;;22.50;19.70;;;19.30;54.90;;;;;;5024705;28;20279;-68
2023/03/24 01:44:28;;;;;;;20.98;18.77;;;19.30;54.90;;;;;;5008392;28;20173;-68
2023/03/24 01:46:56;;;;;;;22.00;19.70;;;19.30;55.00;;;;;;4995595;28;20260;-68
2023/03/24 01:49:26;;;;;;;21.50;19.17;;;19.30;54.90;;;;;;5011843;28;20238;-68
2023/03/24 01:51:57;;;;;;;21.80;19.60;;;19.20;54.80;;;;;;4995674;28;20680;-68
2023/03/24 01:54:39;;;;;;;20.63;18.45;;;19.30;54.90;;;;;;5004059;28;20265;-68
2023/03/24 01:57:36;;;;;;;20.70;18.58;;;19.30;55.50;;;;;;5015140;28;20180;-68
2023/03/24 02:00:11;;;;;;;21.15;18.90;;;19.30;54.90;;;;;;4998533;28;20205;-68
2023/03/24 02:02:48;;;;;;;20.77;18.58;;;19.30;54.90;;;;;;5013652;28;20195;-68
2023/03/24 02:05:23;;;;;;;21.73;19.45;;;19.30;54.90;;;;;;5015001;28;20238;-68
2023/03/24 02:08:14;;;;;;;21.55;19.30;;;19.30;54.90;;;;;;5031074;28;20575;-67
2023/03/24 02:10:43;;;;;;;21.00;18.80;;;19.30;55.50;;;;;;4998746;28;20208;-68
2023/03/24 02:13:10;;;;;;;20.05;17.95;;;19.20;54.80;;;;;;5014671;28;20192;-68
2023/03/24 02:16:22;;;;;;;19.17;17.27;;;19.20;54.80;;;;;;5004854;28;20189;-69
2023/03/24 02:19:37;;;;;;;19.27;17.17;;;19.20;54.80;;;;;;4995296;28;20574;-68
2023/03/24 02:22:25;;;;;;;19.38;17.38;;;19.20;54.80;;;;;;4992401;28;20203;-69
2023/03/24 02:25:09;;;;;;;18.80;16.98;;;19.30;54.90;;;;;;5002622;28;20265;-68
2023/03/24 02:28:03;;;;;;;17.17;15.38;;;19.20;54.80;;;;;;5002898;28;20192;-68
2023/03/24 02:30:44;;;;;;;18.83;16.85;;;19.20;54.80;;;;;;4994933;28;20279;-69
2023/03/24 02:34:06;;;;;;;19.35;17.35;;;19.20;54.90;;;;;;4995061;28;20185;-69
2023/03/24 02:37:17;;;;;;;17.77;15.90;;;19.20;54.90;;;;;;5005956;28;20193;-68
2023/03/24 02:39:55;;;;;;;19.08;17.17;;;19.20;54.80;;;;;;5013678;28;20290;-68
2023/03/24 02:42:33;;;;;;;18.15;16.35;;;19.20;54.80;;;;;;5014315;28;20184;-68
2023/03/24 02:45:16;;;;;;;18.83;16.83;;;19.30;55.00;;;;;;5014151;28;20710;-68
2023/03/24 02:48:09;;;;;;;18.27;16.30;;;19.30;55.00;;;;;;5011982;28;20196;-68
2023/03/24 02:51:14;;;;;;;17.85;16.00;;;19.20;54.80;;;;;;4994385;28;20299;-68
2023/03/24 02:54:12;;;;;;;17.88;16.05;;;19.20;54.80;;;;;;4986642;28;20251;-68
2023/03/24 02:57:07;;;;;;;18.27;16.35;;;19.20;54.80;;;;;;4994328;28;20189;-69
2023/03/24 03:00:18;;;;;;;17.95;16.05;;;19.20;54.90;;;;;;4993665;28;20716;-68
2023/03/24 03:03:30;;;;;;;16.83;15.23;;;19.20;54.80;;;;;;4989960;28;20196;-68
2023/03/24 03:06:11;;;;;;;17.48;15.73;;;19.20;54.80;;;;;;4994633;28;20232;-68
2023/03/24 03:08:40;;;;;;;18.15;16.25;;;19.20;54.90;;;;;;4994262;28;20303;-68
2023/03/24 03:11:12;;;;;;;17.50;15.70;;;19.20;54.90;;;;;;4993874;28;20585;-68
2023/03/24 03:14:17;;;;;;;18.33;16.42;;;19.20;54.90;;;;;;5010471;28;20188;-68
2023/03/24 03:17:00;;;;;;;16.40;14.75;;;19.20;54.90;;;;;;4991780;28;20275;-68
2023/03/24 03:19:37;;;;;;;17.55;15.65;;;19.20;55.20;;;;;;4992397;28;20213;-70
2023/03/24 03:22:11;;;;;;;17.02;15.32;;;19.20;54.90;;;;;;4995400;28;20188;-68
2023/03/24 03:24:43;;;;;;;16.75;15.05;;;19.20;54.80;;;;;;5011493;28;20191;-67
2023/03/24 03:27:18;;;;;;;16.23;14.63;;;19.20;54.90;;;;;;5029747;28;20180;-68
2023/03/24 03:29:53;;;;;;;15.80;14.23;;;19.20;54.90;;;;;;4987807;28;20320;-69
2023/03/24 03:32:32;;;;;;;16.13;14.45;;;19.20;54.90;;;;;;5013030;28;20266;-68
2023/03/24 03:35:24;;;;;;;15.68;14.10;;;19.20;54.90;;;;;;4978161;28;20686;-68
2023/03/24 03:38:23;;;;;;;15.30;13.80;;;19.20;54.90;;;;;;5012366;28;20184;-68
2023/03/24 03:40:54;;;;;;;16.02;14.30;;;19.20;54.80;;;;;;5018898;28;20216;-68
2023/03/24 03:43:26;;;;;;;15.60;13.95;;;19.20;54.90;;;;;;5025539;28;20195;-68
2023/03/24 03:45:53;;;;;;;15.00;13.55;;;19.20;54.90;;;;;;5012973;28;20180;-68
2023/03/24 03:48:25;;;;;;;15.07;13.48;;;19.20;54.90;;;;;;4997072;28;20592;-68
2023/03/24 03:50:53;;;;;;;16.08;14.38;;;19.20;54.90;;;;;;5009463;28;20244;-68
2023/03/24 03:53:27;;;;;;;15.48;13.88;;;19.20;54.90;;;;;;5001369;28;20277;-68
2023/03/24 03:55:55;;;;;;;13.82;12.40;;;19.20;54.90;;;;;;4985278;28;20690;-68
2023/03/24 03:58:22;;;;;;;14.48;13.02;;;19.20;54.90;;;;;;5000054;28;20188;-68
2023/03/24 04:00:54;;;;;;;15.43;13.80;;;19.20;54.90;;;;;;5012525;28;20204;-68
2023/03/24 04:03:59;;;;;;;14.48;13.07;;;19.20;54.90;;;;;;5009854;28;20196;-68
2023/03/24 04:07:29;;;;;;;14.40;12.90;;;19.20;54.90;;;;;;4989726;28;20191;-68
2023/03/24 04:10:34;;;;;;;13.73;12.48;;;19.20;54.90;;;;;;4948217;28;20245;-68
2023/03/24 04:13:27;;;;;;;14.20;12.77;;;19.20;54.90;;;;;;4956265;28;20185;-68
2023/03/24 04:16:59;;;;;;;13.82;12.45;;;19.20;54.90;;;;;;5004515;28;20237;-68
2023/03/24 04:20:11;;;;;;;14.75;13.25;;;19.20;54.90;;;;;;5028462;28;20240;-68
2023/03/24 04:23:17;;;;;;;14.50;13.00;;;19.20;54.90;;;;;;5009622;28;20630;-68
2023/03/24 04:26:10;;;;;;;13.93;12.52;;;19.20;54.90;;;;;;5011948;28;20683;-68
2023/03/24 04:29:17;;;;;;;13.52;12.15;;;19.20;54.90;;;;;;5027368;28;20659;-68
2023/03/24 04:32:18;;;;;;;12.65;11.45;;;19.20;55.00;;;;;;5019695;28;20195;-68
2023/03/24 04:34:53;;;;;;;13.70;12.30;;;19.20;55.00;;;;;;5000015;28;20197;-68
2023/03/24 04:37:38;;;;;;;13.30;12.00;;;19.20;54.90;;;;;;4998461;28;20193;-69
2023/03/24 04:40:17;;;;;;;13.80;12.40;;;19.20;55.00;;;;;;5005829;28;20577;-68
2023/03/24 04:42:51;;;;;;;12.95;11.65;;;19.20;55.00;;;;;;5026412;28;20235;-68
2023/03/24 04:45:20;;;;;;;12.50;11.30;;;19.20;55.00;;;;;;5005740;28;20617;-68
2023/03/24 04:48:17;;;;;;;13.23;11.93;;;19.20;55.00;;;;;;4993422;28;20176;-68
2023/03/24 04:51:02;;;;;;;12.40;11.20;;;19.20;55.00;;;;;;5037745;22;20239;-71
2023/03/24 04:53:38;;;;;;;12.32;11.02;;;19.20;55.00;;;;;;5028123;28;20188;-72
2023/03/24 04:56:39;;;;;;;12.35;11.15;;;19.20;55.00;;;;;;5011694;28;20263;-72
2023/03/24 04:59:14;;;;;;;12.18;10.98;;;19.20;55.00;;;;;;5002718;28;20184;-72
2023/03/24 05:01:48;;;;;;;12.35;11.15;;;19.20;55.00;;;;;;5015647;28;20245;-71
2023/03/24 05:04:40;;;;;;;12.75;11.55;;;19.20;55.00;;;;;;4985496;28;20227;-73
2023/03/24 05:07:14;;;;;;;11.80;10.70;;;19.20;55.00;;;;;;4987453;28;20180;-73
2023/03/24 05:09:41;;;;;;;12.60;11.30;;;19.20;55.00;;;;;;4985063;28;20200;-72
2023/03/24 05:12:06;;;;;;;11.68;10.48;;;19.20;55.00;;;;;;4995889;28;20196;-72
2023/03/24 05:14:45;;;;;;;12.77;11.48;;;19.10;55.00;;;;;;4996238;28;20188;-73
2023/03/24 05:17:11;;;;;;;11.90;10.68;;;19.10;55.00;;;;;;5016945;28;20257;-73
2023/03/24 05:19:37;;;;;;;12.05;10.85;;;19.10;55.00;;;;;;4980154;28;20275;-73
2023/03/24 05:22:03;;;;;;;11.95;10.77;;;19.20;55.60;;;;;;5008735;28;20192;-72
2023/03/24 05:24:30;;;;;;;11.20;10.15;;;19.10;55.00;;;;;;5016594;28;20192;-73
2023/03/24 05:26:55;;;;;;;11.13;10.02;;;19.20;55.00;;;;;;5008826;28;20191;-72
2023/03/24 05:29:21;;;;;;;10.30;9.40;;;19.10;55.00;;;;;;4991067;28;20211;-72
2023/03/24 05:31:47;;;;;;;10.93;9.93;;;19.20;55.00;;;;;;5007111;28;20212;-72
2023/03/24 05:34:16;;;;;;;10.88;9.77;;;19.10;55.00;;;;;;4989122;28;20172;-73
2023/03/24 05:37:02;;;;;;;10.98;9.98;;;19.20;55.10;;;;;;5006493;28;20185;-72
2023/03/24 05:39:27;;;;;;;10.10;9.20;;;19.10;55.00;;;;;;4989709;28;20198;-72
2023/03/24 05:42:02;;;;;;;10.85;9.77;;;19.20;55.10;;;;;;4987725;28;20643;-72
2023/03/24 05:44:28;;;;;;;10.48;9.38;;;19.20;55.10;;;;;;5002216;28;20184;-73
2023/03/24 05:47:04;;;;;;;9.90;8.98;;;19.20;55.10;;;;;;4980026;28;20186;-72
2023/03/24 05:49:30;;;;;;;11.23;10.13;;;19.10;55.00;;;;;;4978449;28;20201;-71
2023/03/24 05:51:56;;;;;;;10.57;9.50;;;19.10;55.00;;;;;;5006549;28;20543;-72
2023/03/24 05:54:22;;;;;;;11.30;10.20;;;19.10;55.00;;;;;;4982646;28;20236;-72
2023/03/24 05:56:52;;;;;;;10.55;9.55;;;19.20;55.10;;;;;;4998913;28;20188;-73
2023/03/24 05:59:41;;;;;;;10.45;9.45;;;19.10;55.00;;;;;;4972166;28;20195;-73
2023/03/24 06:02:15;;;;;;;10.70;9.60;;;19.20;55.10;;;;;;4990674;28;20220;-72
2023/03/24 06:05:11;;;;;;;9.98;9.07;;;19.10;55.10;;;;;;4982554;28;20291;-72
2023/03/24 06:07:41;;;;;;;10.20;9.20;;;19.20;55.10;;;;;;4977407;28;20239;-72
2023/03/24 06:10:13;;;;;;;9.38;8.48;;;19.20;55.10;;;;;;4997723;28;20228;-71
2023/03/24 06:12:45;;;;;;;9.20;8.30;;;19.10;55.10;;;;;;4979520;28;20275;-72
2023/03/24 06:15:16;;;;;;;9.60;8.70;;;19.20;55.10;;;;;;4982450;28;20185;-72
2023/03/24 06:17:45;;;;;;;9.98;8.98;;;19.10;55.10;;;;;;4971150;28;20197;-72
2023/03/24 06:20:22;;;;;;;10.30;9.30;;;19.10;55.10;;;;;;4995811;28;20209;-71
2023/03/24 06:23:08;;;;;;;9.55;8.65;;;19.20;55.20;;;;;;4979661;28;20191;-71
2023/03/24 06:25:46;;;;;;;9.23;8.27;;;19.10;55.10;;;;;;4984842;28;20270;-71
2023/03/24 06:28:21;;;;;;;9.68;8.65;;;19.10;55.20;;;;;;4991188;28;20188;-72
2023/03/24 06:30:48;;;;;;;9.40;8.57;;;19.10;55.20;;;;;;4980263;28;20271;-71
2023/03/24 06:33:21;;;;;;;9.43;8.52;;;19.10;55.10;;;;;;4967892;28;20193;-71
2023/03/24 06:35:47;;;;;;;9.60;8.70;;;19.10;55.20;;;;;;4983203;28;20185;-72
2023/03/24 06:38:15;;;;;;;10.07;9.07;;;19.10;55.20;;;;;;4978138;28;20296;-72
2023/03/24 06:40:42;;;;;;;9.55;8.65;;;19.10;55.20;;;;;;4986673;28;20240;-72
2023/03/24 06:43:08;;;;;;;9.30;8.30;;;19.10;55.20;;;;;;4969860;28;20182;-71
2023/03/24 06:45:38;;;;;;;9.32;8.43;;;19.20;55.40;;;;;;4988512;28;20189;-72
2023/03/24 06:48:05;;;;;;;9.10;8.20;;;19.10;55.30;;;;;;5006380;28;20186;-71
2023/03/24 06:50:34;;;;;;;8.43;7.63;;;19.10;55.20;;;;;;4972150;28;20214;-71
2023/03/24 06:53:04;;;;;;;8.88;8.07;;;19.10;55.30;;;;;;4990562;28;20189;-72
2023/03/24 06:55:32;;;;;;;9.15;8.25;;;19.10;55.30;;;;;;4983898;28;20283;-71
2023/03/24 06:57:58;;;;;;;10.18;8.40;;;19.10;55.30;;;;;;4982134;28;20182;-72
2023/03/24 07:00:29;;;;;;;8.30;7.50;;;19.10;55.30;;;;;;4981425;28;20217;-71
2023/03/24 07:03:06;;;;;;;8.00;7.20;;;19.10;55.30;;;;;;4975153;28;20191;-72
2023/03/24 07:05:38;;;;;;;8.60;7.80;;;19.10;55.30;;;;;;4972434;28;20202;-72
2023/03/24 07:08:08;;;;;;;8.82;8.02;;;19.20;55.30;;;;;;4989241;28;20215;-72
2023/03/24 07:10:40;;;;;;;9.23;8.32;;;19.10;55.30;;;;;;4972103;28;20211;-72
2023/03/24 07:13:07;;;;;;;8.75;7.82;;;19.20;55.40;;;;;;4985397;28;20194;-72
2023/03/24 07:15:37;;;;;;;8.38;7.57;;;19.10;55.30;;;;;;4991799;28;20223;-72
2023/03/24 07:18:03;;;;;;;8.38;7.57;;;19.10;55.30;;;;;;4985319;28;20185;-72
2023/03/24 07:20:50;;;;;;;8.30;7.50;;;19.10;55.90;;;;;;4988175;28;20227;-72
2023/03/24 07:23:18;;;;;;;8.68;7.78;;;19.10;55.30;;;;;;4989329;28;20212;-72
2023/03/24 07:26:16;;;;;;;8.10;7.40;;;19.20;55.90;;;;;;4973913;28;20263;-72
2023/03/24 07:28:56;;;;;;;8.23;7.43;;;19.10;55.20;;;;;;4986942;28;20224;-72
2023/03/24 07:31:36;;;;;;;8.45;7.55;;;19.10;55.30;;;;;;4976426;28;20224;-71
2023/03/24 07:34:05;;;;;;;7.78;6.97;;;19.10;55.30;;;;;;4986308;28;20176;-71
2023/03/24 07:36:35;;;;;;;8.15;7.35;;;19.10;55.30;;;;;;4970803;28;20220;-72
2023/03/24 07:39:03;;;;;;;7.85;7.15;;;19.10;55.40;;;;;;4983237;28;20224;-72
2023/03/24 07:41:33;;;;;;;8.02;7.30;;;19.10;55.40;;;;;;4985063;28;20233;-72
2023/03/24 07:44:02;;;;;;;7.93;7.13;;;19.10;55.50;;;;;;4971707;28;20618;-71
2023/03/24 07:46:51;;;;;;;7.80;7.00;;;19.10;55.50;;;;;;4976211;28;20256;-72
2023/03/24 07:49:17;;;;;;;7.50;6.80;;;19.10;55.50;;;;;;4994949;28;20196;-72
2023/03/24 07:51:46;;;;;;;7.70;7.00;;;19.10;55.50;;;;;;4978640;28;20275;-71
2023/03/24 07:54:25;;;;;;;7.15;6.45;;;19.10;55.50;;;;;;4977565;28;20181;-71
2023/03/24 07:56:52;;;;;;;7.18;6.55;;;19.10;55.50;;;;;;4993964;28;20548;-72
2023/03/24 07:59:17;;;;;;;7.57;6.85;;;19.10;55.40;;;;;;4976766;28;20225;-72
2023/03/24 08:01:50;;;;;;;7.63;6.93;;;19.10;55.50;;;;;;4995440;28;20719;-73
2023/03/24 08:04:19;;;;;;;7.75;6.80;;;19.10;55.50;;;;;;4975249;28;20189;-71
2023/03/24 08:07:00;;;;;;;8.18;6.85;;;19.20;55.60;;;;;;4979541;28;20207;-71
2023/03/24 08:09:25;;;;;;;7.50;6.68;;;19.10;55.50;;;;;;4976587;28;20208;-72
2023/03/24 08:11:54;;;;;;;6.80;6.10;;;19.10;55.60;;;;;;4976683;28;20343;-71
2023/03/24 08:14:22;;;;;;;7.70;6.95;;;19.10;55.50;;;;;;4976005;28;20236;-72
2023/03/24 08:16:48;;;;;;;7.80;7.10;;;19.10;55.60;;;;;;4990020;28;20275;-72
2023/03/24 08:19:15;;;;;;;6.95;6.35;;;19.10;55.60;;;;;;4992589;28;20259;-71
2023/03/24 08:21:40;;;;;;;7.22;6.53;;;19.10;55.60;;;;;;4976757;28;20241;-72
2023/03/24 08:24:06;;;;;;;6.65;6.00;;;19.20;55.70;;;;;;4992667;28;20189;-71
2023/03/24 08:26:34;;;;;;;7.15;6.45;;;19.10;55.70;;;;;;4976580;28;20235;-72
2023/03/24 08:29:00;;;;;;;6.35;5.75;;;19.10;55.70;;;;;;4995873;28;20240;-72
2023/03/24 08:31:35;;;;;;;6.32;5.82;;;19.10;55.60;;;;;;5002679;28;20218;-72
2023/03/24 08:34:03;;;;;;;6.82;6.22;;;19.20;55.70;;;;;;5007463;28;20270;-72
2023/03/24 08:36:29;;;;;;;6.82;6.22;;;19.10;55.60;;;;;;4987637;28;20286;-73
2023/03/24 08:38:56;;;;;;;6.90;6.30;;;19.20;55.80;;;;;;4996477;28;20185;-71
2023/03/24 08:41:35;;;;;;;6.32;5.72;;;19.10;55.80;;;;;;5012348;28;20643;-72
2023/03/24 08:44:10;;;;;;;6.57;5.97;;;19.10;55.70;;;;;;4994529;28;20189;-72
2023/03/24 08:46:38;;;;;;;6.45;5.90;;;19.10;55.80;;;;;;5010076;28;20227;-72
2023/03/24 08:49:07;;;;;;;7.20;6.55;;;19.10;55.70;;;;;;4981215;28;20197;-72
2023/03/24 08:51:35;;;;;;;6.57;5.97;;;19.10;55.70;;;;;;4995887;28;20220;-72
2023/03/24 08:54:02;;;;;;;5.82;5.30;;;19.10;56.40;;;;;;4995017;28;20188;-72
2023/03/24 08:56:28;;;;;;;5.93;5.43;;;19.20;55.90;;;;;;4993057;28;20192;-72
2023/03/24 08:58:56;;;;;;;6.18;5.65;;;19.10;55.80;;;;;;5010283;28;20189;-71
2023/03/24 09:01:23;;;;;;;6.45;5.82;;;19.10;55.80;;;;;;4996445;28;20681;-72
2023/03/24 09:03:49;;;;;;;6.53;5.93;;;19.10;55.80;;;;;;4978607;28;20234;-72
2023/03/24 09:06:16;;;;;;;6.47;5.93;;;19.10;55.80;;;;;;4997332;28;20278;-72
2023/03/24 09:08:42;;;;;;;6.53;5.88;;;19.20;55.90;;;;;;4994277;28;20246;-73
2023/03/24 09:11:19;;;;;;;6.20;5.70;;;19.10;55.80;;;;;;4996262;28;20262;-72
2023/03/24 09:13:45;;;;;;;5.60;5.10;;;19.10;55.90;;;;;;4978419;28;20197;-72
2023/03/24 09:16:11;;;;;;;5.97;5.40;;;19.20;55.90;;;;;;4996306;28;20180;-72
2023/03/24 09:18:37;;;;;;;5.80;5.30;;;19.10;55.90;;;;;;4978226;28;20663;-70
2023/03/24 09:21:03;;;;;;;5.78;5.28;;;19.10;55.80;;;;;;4995942;28;20208;-72
2023/03/24 09:23:30;;;;;;;6.65;5.78;;;19.20;55.80;;;;;;4992656;28;20206;-72
2023/03/24 09:25:56;;;;;;;5.95;5.30;;;19.10;55.80;;;;;;4979027;28;20184;-72
2023/03/24 09:28:22;;;;;;;6.10;5.50;;;19.10;55.90;;;;;;4992741;28;20275;-73
2023/03/24 09:30:56;;;;;;;6.47;5.88;;;19.10;55.90;;;;;;4977746;28;20223;-72
2023/03/24 09:33:23;;;;;;;5.70;5.20;;;19.10;55.80;;;;;;4995957;28;20282;-72
2023/03/24 09:35:58;;;;;;;6.07;5.47;;;19.20;55.90;;;;;;4994296;28;20185;-72
2023/03/24 09:38:24;;;;;;;5.72;5.18;;;19.10;55.90;;;;;;5008910;28;20187;-71
2023/03/24 09:40:59;;;;;;;5.90;5.40;;;19.10;55.80;;;;;;4991910;28;20212;-73
2023/03/24 09:43:48;;;;;;;5.78;5.20;;;19.20;55.90;;;;;;4993975;28;20279;-72
2023/03/24 09:46:52;;;;;;;5.40;5.00;;;19.20;55.80;;;;;;4991129;28;20196;-72
2023/03/24 09:49:27;;;;;;;5.90;5.30;;;19.20;55.90;;;;;;4984096;28;20220;-70
2023/03/24 09:52:09;;;;;;;5.93;5.40;;;19.20;55.80;;;;;;4978134;28;20196;-72
2023/03/24 09:54:47;;;;;;;5.60;5.10;;;19.20;55.80;;;;;;4989371;28;20195;-72
2023/03/24 09:57:30;;;;;;;5.07;4.68;;;19.20;55.90;;;;;;4996904;28;20192;-72
2023/03/24 09:59:58;;;;;;;5.75;4.82;;;19.20;56.00;;;;;;4976017;28;20227;-72
2023/03/24 10:02:29;;;;;;;5.75;5.18;;;19.20;56.00;;;;;;4976189;28;20243;-71
2023/03/24 10:04:55;;;;;;;5.47;4.97;;;19.20;56.00;;;;;;4994632;28;20200;-72
2023/03/24 10:07:37;;;;;;;5.50;5.10;;;19.20;55.90;;;;;;4982088;28;20192;-70
2023/03/24 10:10:19;;;;;;;5.78;5.28;;;19.20;55.90;;;;;;4997908;28;20216;-72
2023/03/24 10:12:48;;;;;;;5.88;5.38;;;19.20;55.90;;;;;;4980895;28;20567;-72
2023/03/24 10:15:33;;;;;;;5.40;4.90;;;19.20;55.90;;;;;;4986977;28;20699;-72
2023/03/24 10:18:11;;;;;;;5.50;5.00;;;19.30;56.00;;;;;;5013369;28;20196;-71
2023/03/24 10:21:10;;;;;;;6.07;5.47;;;19.30;56.00;;;;;;4998441;28;20209;-72
2023/03/24 10:24:23;;;;;;;5.13;4.63;;;19.30;56.10;;;;;;4995885;28;20196;-71
2023/03/24 10:27:12;;;;;;;5.80;5.30;;;19.30;56.00;;;;;;4994439;28;20239;-72
2023/03/24 10:29:40;;;;;;;5.55;4.95;;;19.30;56.00;;;;;;4997793;28;20235;-72
2023/03/24 10:32:21;;;;;;;5.05;4.63;;;19.30;56.00;;;;;;4979539;28;20272;-71
2023/03/24 10:34:55;;;;;;;5.10;4.60;;;19.30;56.10;;;;;;5010504;28;20636;-71
2023/03/24 10:37:21;;;;;;;5.65;5.15;;;19.20;56.10;;;;;;4996832;28;20230;-71
2023/03/24 10:39:48;;;;;;;5.70;5.20;;;19.30;56.20;;;;;;4995200;28;20236;-71
2023/03/24 10:42:24;;;;;;;5.60;5.10;;;19.30;56.10;;;;;;4979092;28;20188;-72
2023/03/24 10:44:51;;;;;;;5.00;4.40;;;19.30;56.20;;;;;;5011740;28;20279;-70
2023/03/24 10:47:24;;;;;;;5.20;4.80;;;19.30;56.30;;;;;;4995330;28;20438;-71
2023/03/24 10:49:59;;;;;;;4.95;4.55;;;19.30;56.20;;;;;;4975436;28;20316;-72
2023/03/24 10:52:27;;;;;;;5.57;5.07;;;19.30;56.20;;;;;;5007514;28;20260;-71
2023/03/24 10:55:07;;;;;;;5.28;4.78;;;19.30;56.30;;;;;;4996594;28;20181;-71
2023/03/24 10:57:33;;;;;;;4.80;4.40;;;19.30;56.20;;;;;;4975728;28;20195;-70
2023/03/24 11:00:19;;;;;;;4.70;4.30;;;19.30;56.30;;;;;;4981479;28;20205;-71
2023/03/24 11:02:56;;;;;;;5.28;4.78;;;19.30;56.20;;;;;;4996961;28;20204;-71
2023/03/24 11:05:29;;;;;;;4.53;4.13;;;19.30;56.40;;;;;;4978292;28;20192;-72
2023/03/24 11:08:11;;;;;;;4.50;4.10;;;19.30;56.40;;;;;;4992901;28;20276;-72
2023/03/24 11:10:38;;;;;;;4.60;4.20;;;19.30;56.90;;;;;;4992066;28;20217;-70
2023/03/24 11:13:15;;;;;;;4.72;4.32;;;19.30;56.40;;;;;;4980173;28;20185;-72
2023/03/24 11:15:54;;;;;;;4.40;4.00;;;19.30;56.30;;;;;;4993759;28;20177;-72
2023/03/24 11:18:21;;;;;;;4.72;4.30;;;19.30;56.20;;;;;;4993329;28;20239;-72
2023/03/24 11:20:56;;;;;;;4.78;4.35;;;19.30;56.20;;;;;;5019845;28;20219;-72
2023/03/24 11:23:29;;;;;;;4.93;4.20;;;19.30;56.60;;;;;;5014718;28;20660;-72
2023/03/24 11:26:11;;;;;;;4.40;4.00;;;19.30;56.30;;;;;;4977108;28;20196;-72
2023/03/24 11:28:44;;;;;;;4.20;3.80;;;19.30;56.30;;;;;;4998585;28;20691;-72
2023/03/24 11:31:17;;;;;;;4.85;4.45;;;19.30;56.30;;;;;;4998177;28;20711;-73
2023/03/24 11:34:15;;;;;;;4.30;4.00;;;19.30;56.20;;;;;;5003847;28;20192;-72
2023/03/24 11:37:10;;;;;;;4.40;4.00;;;19.30;56.20;;;;;;5007660;28;20192;-71
2023/03/24 11:39:36;;;;;;;4.18;3.78;;;19.30;56.20;;;;;;4995988;28;20199;-71
2023/03/24 11:42:11;;;;;;;4.63;4.22;;;19.30;56.20;;;;;;5010620;28;20283;-73
2023/03/24 11:44:37;;;;;;;5.18;4.68;;;19.30;56.20;;;;;;5021495;28;20187;-72
2023/03/24 11:47:35;;;;;;;5.00;4.57;;;19.30;56.20;;;;;;4996712;28;20192;-71
2023/03/24 11:50:10;;;;;;;4.95;4.55;;;19.30;56.30;;;;;;5010089;28;20217;-72
2023/03/24 11:53:18;;;;;;;4.45;4.05;;;19.30;56.20;;;;;;4993332;28;20220;-74
2023/03/24 11:56:05;;;;;;;5.57;5.07;;;19.30;56.20;;;;;;4994431;28;20277;-71
2023/03/24 11:58:50;;;;;;;6.45;5.78;;;19.30;56.20;;;;;;4994259;28;20180;-72
2023/03/24 12:01:18;;;;;;;6.95;6.25;;;19.30;56.30;;;;;;4988214;28;20207;-71
2023/03/24 12:04:35;;;;;;;6.40;5.80;;;19.30;56.30;;;;;;4981842;28;20197;-71
2023/03/24 12:07:50;;;;;;;7.03;6.32;;;19.30;56.30;;;;;;4976155;28;20181;-71
2023/03/24 12:11:02;;;;;;;7.55;6.85;;;19.30;56.20;;;;;;4993832;28;20220;-72
2023/03/24 12:13:44;;;;;;;6.90;6.30;;;19.30;56.20;;;;;;4981857;28;20195;-72
2023/03/24 12:16:39;;;;;;;6.90;6.22;;;19.30;56.20;;;;;;4995862;28;20189;-71
2023/03/24 12:19:27;;;;;;;7.35;6.63;;;19.30;56.20;;;;;;4986251;28;20188;-72
2023/03/24 12:22:20;;;;;;;7.55;6.85;;;19.30;56.30;;;;;;4988002;28;20200;-71
2023/03/24 12:25:23;;;;;;;7.68;6.95;;;19.30;56.30;;;;;;4988063;28;20555;-73
2023/03/24 12:28:18;;;;;;;8.07;7.13;;;19.30;56.30;;;;;;4988422;28;20193;-71
2023/03/24 12:31:46;;;;;;;8.10;7.28;;;19.30;56.30;;;;;;4971061;28;20292;-70
2023/03/24 12:35:08;;;;;;;7.72;6.93;;;19.30;56.40;;;;;;4966782;28;20212;-71
2023/03/24 12:37:45;;;;;;;7.80;7.05;;;19.30;56.40;;;;;;4993101;28;20342;-72
2023/03/24 12:40:39;;;;;;;10.40;9.38;;;19.30;56.30;;;;;;4987381;28;20216;-72
2023/03/24 12:43:46;;;;;;;12.95;11.65;;;19.30;56.60;;;;;;5011169;28;20208;-72
2023/03/24 12:46:58;;;;;;;11.27;10.18;;;19.30;56.50;;;;;;4982575;28;20287;-72
2023/03/24 12:49:36;;;;;;;11.10;9.90;;;19.30;56.50;;;;;;4996626;28;20228;-72
2023/03/24 12:52:24;;;;;;;11.00;9.90;;;19.30;56.70;;;;;;4984755;28;20184;-73
2023/03/24 12:55:09;;;;;;;10.50;9.45;;;19.30;56.60;;;;;;4992983;28;20196;-72
2023/03/24 12:58:03;;;;;;;9.85;8.90;;;19.30;56.60;;;;;;4966146;28;20194;-72
2023/03/24 13:00:57;;;;;;;10.35;9.30;;;19.30;56.50;;;;;;4982860;28;20586;-71
2023/03/24 13:03:34;;;;;;;10.75;9.63;;;19.30;56.50;;;;;;4994570;28;20192;-72
2023/03/24 13:06:23;;;;;;;10.68;9.38;;;19.30;56.40;;;;;;4967320;28;20196;-72
2023/03/24 13:09:30;;;;;;;10.27;9.13;;;19.30;56.40;;;;;;4994690;28;20691;-71
2023/03/24 13:12:08;;;;;;;9.55;8.55;;;19.30;56.40;;;;;;4976019;28;20243;-71
2023/03/24 13:14:59;;;;;;;9.63;8.63;;;19.30;56.40;;;;;;4985486;28;20173;-70
2023/03/24 13:18:08;;;;;;;10.15;9.15;;;19.30;56.40;;;;;;4984478;28;20690;-72
2023/03/24 13:20:43;;;;;;;10.55;9.50;;;19.30;56.30;;;;;;4990963;28;20212;-72
2023/03/24 13:23:40;;;;;;;10.27;9.18;;;19.30;56.30;;;;;;4991293;28;20231;-72
2023/03/24 13:26:38;;;;;;;10.00;9.02;;;19.30;56.30;;;;;;5001808;28;20174;-71
2023/03/24 13:29:40;;;;;;;11.00;8.85;;;19.30;56.20;;;;;;4980450;28;20302;-72
2023/03/24 13:32:39;;;;;;;11.73;9.13;;;19.30;56.20;;;;;;5015813;28;20201;-72